sensor_id;sensor_type;location;lat;lon;timestamp;P1;durP1;ratioP1;P2;durP2;ratioP2
40621;SDS011;26324;52.040;11.528;2023-04-10T00:02:25;13.27;;;4.68;;
40621;SDS011;26324;52.040;11.528;2023-04-10T00:04:52;11.52;;;4.80;;
40621;SDS011;26324;52.040;11.528;2023-04-10T00:07:20;6.97;;;4.68;;
40621;SDS011;26324;52.040;11.528;2023-04-10T00:09:47;11.75;;;5.00;;
40621;SDS011;26324;52.040;11.528;2023-04-10T00:12:14;7.43;;;3.55;;
40621;SDS011;26324;52.040;11.528;2023-04-10T00:14:42;9.55;;;3.75;;
40621;SDS011;26324;52.040;11.528;2023-04-10T00:17:10;10.55;;;4.55;;
40621;SDS011;26324;52.040;11.528;2023-04-10T00:19:37;6.38;;;3.53;;
40621;SDS011;26324;52.040;11.528;2023-04-10T00:22:04;8.75;;;3.85;;
40621;SDS011;26324;52.040;11.528;2023-04-10T00:24:32;8.45;;;3.95;;
40621;SDS011;26324;52.040;11.528;2023-04-10T00:26:59;8.82;;;3.03;;
40621;SDS011;26324;52.040;11.528;2023-04-10T00:29:27;6.35;;;3.63;;
40621;SDS011;26324;52.040;11.528;2023-04-10T00:31:54;11.05;;;3.67;;
40621;SDS011;26324;52.040;11.528;2023-04-10T00:34:22;11.43;;;4.88;;
40621;SDS011;26324;52.040;11.528;2023-04-10T00:36:49;13.48;;;4.97;;
40621;SDS011;26324;52.040;11.528;2023-04-10T00:39:17;10.18;;;4.93;;
40621;SDS011;26324;52.040;11.528;2023-04-10T00:41:44;9.15;;;3.70;;
40621;SDS011;26324;52.040;11.528;2023-04-10T00:44:12;10.02;;;4.30;;
40621;SDS011;26324;52.040;11.528;2023-04-10T00:46:39;6.47;;;4.13;;
40621;SDS011;26324;52.040;11.528;2023-04-10T00:49:07;7.72;;;3.15;;
40621;SDS011;26324;52.040;11.528;2023-04-10T00:51:35;9.88;;;3.90;;
40621;SDS011;26324;52.040;11.528;2023-04-10T00:54:03;5.80;;;2.80;;
40621;SDS011;26324;52.040;11.528;2023-04-10T00:56:30;9.23;;;3.75;;
40621;SDS011;26324;52.040;11.528;2023-04-10T00:58:58;10.57;;;4.55;;
40621;SDS011;26324;52.040;11.528;2023-04-10T01:01:26;11.80;;;4.18;;
40621;SDS011;26324;52.040;11.528;2023-04-10T01:03:55;7.80;;;3.78;;
40621;SDS011;26324;52.040;11.528;2023-04-10T01:06:34;7.25;;;3.17;;
40621;SDS011;26324;52.040;11.528;2023-04-10T01:09:40;8.52;;;3.40;;
40621;SDS011;26324;52.040;11.528;2023-04-10T01:15:10;6.75;;;2.75;;
40621;SDS011;26324;52.040;11.528;2023-04-10T01:17:50;8.85;;;3.38;;
40621;SDS011;26324;52.040;11.528;2023-04-10T01:20:19;7.30;;;3.13;;
40621;SDS011;26324;52.040;11.528;2023-04-10T01:25:42;7.95;;;4.03;;
40621;SDS011;26324;52.040;11.528;2023-04-10T01:31:05;10.85;;;4.78;;
40621;SDS011;26324;52.040;11.528;2023-04-10T01:33:42;11.02;;;4.95;;
40621;SDS011;26324;52.040;11.528;2023-04-10T01:36:20;8.52;;;4.10;;
40621;SDS011;26324;52.040;11.528;2023-04-10T01:38:52;10.30;;;4.72;;
40621;SDS011;26324;52.040;11.528;2023-04-10T01:41:21;9.43;;;3.60;;
40621;SDS011;26324;52.040;11.528;2023-04-10T01:46:20;10.93;;;4.93;;
40621;SDS011;26324;52.040;11.528;2023-04-10T01:51:17;10.93;;;3.90;;
40621;SDS011;26324;52.040;11.528;2023-04-10T01:53:45;8.70;;;3.85;;
40621;SDS011;26324;52.040;11.528;2023-04-10T01:56:16;10.95;;;4.63;;
40621;SDS011;26324;52.040;11.528;2023-04-10T01:58:45;13.80;;;5.30;;
40621;SDS011;26324;52.040;11.528;2023-04-10T02:01:19;9.48;;;4.25;;
40621;SDS011;26324;52.040;11.528;2023-04-10T02:03:56;10.05;;;4.47;;
40621;SDS011;26324;52.040;11.528;2023-04-10T02:06:36;6.55;;;3.60;;
40621;SDS011;26324;52.040;11.528;2023-04-10T02:11:54;8.85;;;3.10;;
40621;SDS011;26324;52.040;11.528;2023-04-10T02:14:27;9.93;;;3.80;;
40621;SDS011;26324;52.040;11.528;2023-04-10T02:16:57;8.15;;;3.55;;
40621;SDS011;26324;52.040;11.528;2023-04-10T02:19:27;10.35;;;4.15;;
40621;SDS011;26324;52.040;11.528;2023-04-10T02:21:56;14.15;;;3.88;;
40621;SDS011;26324;52.040;11.528;2023-04-10T02:24:25;5.85;;;2.70;;
40621;SDS011;26324;52.040;11.528;2023-04-10T02:26:53;7.57;;;3.75;;
40621;SDS011;26324;52.040;11.528;2023-04-10T02:29:22;11.30;;;4.18;;
40621;SDS011;26324;52.040;11.528;2023-04-10T02:31:49;9.60;;;3.25;;
40621;SDS011;26324;52.040;11.528;2023-04-10T02:34:18;9.07;;;4.15;;
40621;SDS011;26324;52.040;11.528;2023-04-10T02:36:45;11.13;;;5.47;;
40621;SDS011;26324;52.040;11.528;2023-04-10T02:39:12;6.78;;;4.38;;
40621;SDS011;26324;52.040;11.528;2023-04-10T02:41:49;10.18;;;5.00;;
40621;SDS011;26324;52.040;11.528;2023-04-10T02:44:16;11.70;;;5.13;;
40621;SDS011;26324;52.040;11.528;2023-04-10T02:46:44;18.33;;;5.53;;
40621;SDS011;26324;52.040;11.528;2023-04-10T02:49:13;13.30;;;5.18;;
40621;SDS011;26324;52.040;11.528;2023-04-10T02:51:40;11.93;;;4.35;;
40621;SDS011;26324;52.040;11.528;2023-04-10T02:54:08;17.02;;;5.93;;
40621;SDS011;26324;52.040;11.528;2023-04-10T02:56:36;16.10;;;5.57;;
40621;SDS011;26324;52.040;11.528;2023-04-10T02:59:03;10.43;;;4.72;;
40621;SDS011;26324;52.040;11.528;2023-04-10T03:01:32;11.40;;;4.70;;
40621;SDS011;26324;52.040;11.528;2023-04-10T03:04:00;11.75;;;4.70;;
40621;SDS011;26324;52.040;11.528;2023-04-10T03:06:34;10.25;;;4.65;;
40621;SDS011;26324;52.040;11.528;2023-04-10T03:09:02;8.13;;;4.78;;
40621;SDS011;26324;52.040;11.528;2023-04-10T03:11:29;15.05;;;6.07;;
40621;SDS011;26324;52.040;11.528;2023-04-10T03:13:56;7.22;;;4.00;;
40621;SDS011;26324;52.040;11.528;2023-04-10T03:16:24;10.68;;;4.68;;
40621;SDS011;26324;52.040;11.528;2023-04-10T03:18:52;12.18;;;4.40;;
40621;SDS011;26324;52.040;11.528;2023-04-10T03:21:19;8.20;;;3.42;;
40621;SDS011;26324;52.040;11.528;2023-04-10T03:23:48;7.65;;;3.75;;
40621;SDS011;26324;52.040;11.528;2023-04-10T03:26:15;9.05;;;4.10;;
40621;SDS011;26324;52.040;11.528;2023-04-10T03:28:42;8.50;;;4.22;;
40621;SDS011;26324;52.040;11.528;2023-04-10T03:31:09;9.38;;;3.67;;
40621;SDS011;26324;52.040;11.528;2023-04-10T03:33:39;12.93;;;4.55;;
40621;SDS011;26324;52.040;11.528;2023-04-10T03:36:07;10.63;;;4.28;;
40621;SDS011;26324;52.040;11.528;2023-04-10T03:38:34;10.32;;;3.78;;
40621;SDS011;26324;52.040;11.528;2023-04-10T03:41:03;7.97;;;4.75;;
40621;SDS011;26324;52.040;11.528;2023-04-10T03:43:31;10.40;;;4.70;;
40621;SDS011;26324;52.040;11.528;2023-04-10T03:46:00;8.38;;;3.58;;
40621;SDS011;26324;52.040;11.528;2023-04-10T03:48:28;11.25;;;4.70;;
40621;SDS011;26324;52.040;11.528;2023-04-10T03:50:56;7.25;;;3.33;;
40621;SDS011;26324;52.040;11.528;2023-04-10T03:53:24;9.15;;;4.07;;
40621;SDS011;26324;52.040;11.528;2023-04-10T03:55:53;7.90;;;3.80;;
40621;SDS011;26324;52.040;11.528;2023-04-10T03:58:21;10.35;;;3.65;;
40621;SDS011;26324;52.040;11.528;2023-04-10T04:00:50;8.20;;;2.85;;
40621;SDS011;26324;52.040;11.528;2023-04-10T04:03:29;5.32;;;2.90;;
40621;SDS011;26324;52.040;11.528;2023-04-10T04:06:16;8.27;;;2.75;;
40621;SDS011;26324;52.040;11.528;2023-04-10T04:09:05;10.50;;;3.75;;
40621;SDS011;26324;52.040;11.528;2023-04-10T04:11:58;4.45;;;2.35;;
40621;SDS011;26324;52.040;11.528;2023-04-10T04:14:55;6.82;;;2.40;;
40621;SDS011;26324;52.040;11.528;2023-04-10T04:17:35;7.55;;;2.70;;
40621;SDS011;26324;52.040;11.528;2023-04-10T04:20:03;4.95;;;2.40;;
40621;SDS011;26324;52.040;11.528;2023-04-10T04:22:47;6.60;;;3.03;;
40621;SDS011;26324;52.040;11.528;2023-04-10T04:25:17;7.70;;;3.97;;
40621;SDS011;26324;52.040;11.528;2023-04-10T04:27:59;10.07;;;3.22;;
40621;SDS011;26324;52.040;11.528;2023-04-10T04:30:53;8.20;;;2.92;;
40621;SDS011;26324;52.040;11.528;2023-04-10T04:33:42;6.22;;;3.10;;
40621;SDS011;26324;52.040;11.528;2023-04-10T04:36:24;4.65;;;2.30;;
40621;SDS011;26324;52.040;11.528;2023-04-10T04:39:26;9.20;;;3.17;;
40621;SDS011;26324;52.040;11.528;2023-04-10T04:42:11;9.55;;;4.85;;
40621;SDS011;26324;52.040;11.528;2023-04-10T04:44:39;11.07;;;4.72;;
40621;SDS011;26324;52.040;11.528;2023-04-10T04:47:15;12.77;;;5.15;;
40621;SDS011;26324;52.040;11.528;2023-04-10T04:50:05;13.18;;;4.75;;
40621;SDS011;26324;52.040;11.528;2023-04-10T04:52:57;9.57;;;4.90;;
40621;SDS011;26324;52.040;11.528;2023-04-10T04:55:31;15.98;;;5.32;;
40621;SDS011;26324;52.040;11.528;2023-04-10T04:58:13;12.07;;;6.03;;
40621;SDS011;26324;52.040;11.528;2023-04-10T05:00:56;11.93;;;4.85;;
40621;SDS011;26324;52.040;11.528;2023-04-10T05:03:43;7.53;;;4.38;;
40621;SDS011;26324;52.040;11.528;2023-04-10T05:06:21;12.27;;;4.50;;
40621;SDS011;26324;52.040;11.528;2023-04-10T05:09:09;12.50;;;4.55;;
40621;SDS011;26324;52.040;11.528;2023-04-10T05:11:59;9.77;;;5.70;;
40621;SDS011;26324;52.040;11.528;2023-04-10T05:14:52;11.43;;;4.13;;
40621;SDS011;26324;52.040;11.528;2023-04-10T05:17:30;14.02;;;6.40;;
40621;SDS011;26324;52.040;11.528;2023-04-10T05:20:23;13.90;;;5.47;;
40621;SDS011;26324;52.040;11.528;2023-04-10T05:23:00;10.20;;;4.78;;
40621;SDS011;26324;52.040;11.528;2023-04-10T05:25:46;12.13;;;5.07;;
40621;SDS011;26324;52.040;11.528;2023-04-10T05:28:20;11.18;;;3.95;;
40621;SDS011;26324;52.040;11.528;2023-04-10T05:31:14;12.63;;;5.38;;
40621;SDS011;26324;52.040;11.528;2023-04-10T05:33:56;14.05;;;5.63;;
40621;SDS011;26324;52.040;11.528;2023-04-10T05:36:37;15.07;;;5.95;;
40621;SDS011;26324;52.040;11.528;2023-04-10T05:39:17;12.57;;;4.85;;
40621;SDS011;26324;52.040;11.528;2023-04-10T05:41:50;9.60;;;5.15;;
40621;SDS011;26324;52.040;11.528;2023-04-10T05:44:23;15.75;;;5.40;;
40621;SDS011;26324;52.040;11.528;2023-04-10T05:47:01;14.68;;;5.78;;
40621;SDS011;26324;52.040;11.528;2023-04-10T05:49:37;14.00;;;4.72;;
40621;SDS011;26324;52.040;11.528;2023-04-10T05:52:33;13.32;;;5.05;;
40621;SDS011;26324;52.040;11.528;2023-04-10T05:55:19;16.38;;;6.38;;
40621;SDS011;26324;52.040;11.528;2023-04-10T05:58:03;13.82;;;4.88;;
40621;SDS011;26324;52.040;11.528;2023-04-10T06:00:52;12.82;;;6.47;;
40621;SDS011;26324;52.040;11.528;2023-04-10T06:03:34;11.98;;;5.35;;
40621;SDS011;26324;52.040;11.528;2023-04-10T06:06:02;14.90;;;6.97;;
40621;SDS011;26324;52.040;11.528;2023-04-10T06:08:31;14.25;;;6.80;;
40621;SDS011;26324;52.040;11.528;2023-04-10T06:10:58;15.30;;;5.75;;
40621;SDS011;26324;52.040;11.528;2023-04-10T06:13:25;14.50;;;5.82;;
40621;SDS011;26324;52.040;11.528;2023-04-10T06:15:56;14.10;;;6.15;;
40621;SDS011;26324;52.040;11.528;2023-04-10T06:21:20;13.45;;;7.47;;
40621;SDS011;26324;52.040;11.528;2023-04-10T06:23:47;19.80;;;7.90;;
40621;SDS011;26324;52.040;11.528;2023-04-10T06:26:14;13.80;;;6.43;;
40621;SDS011;26324;52.040;11.528;2023-04-10T06:28:42;15.23;;;7.18;;
40621;SDS011;26324;52.040;11.528;2023-04-10T06:31:13;21.50;;;8.20;;
40621;SDS011;26324;52.040;11.528;2023-04-10T06:33:41;15.35;;;7.68;;
40621;SDS011;26324;52.040;11.528;2023-04-10T06:36:09;17.92;;;6.95;;
40621;SDS011;26324;52.040;11.528;2023-04-10T06:38:46;17.00;;;8.38;;
40621;SDS011;26324;52.040;11.528;2023-04-10T06:41:13;16.90;;;6.78;;
40621;SDS011;26324;52.040;11.528;2023-04-10T06:43:41;19.45;;;7.38;;
40621;SDS011;26324;52.040;11.528;2023-04-10T06:46:08;16.42;;;6.93;;
40621;SDS011;26324;52.040;11.528;2023-04-10T06:48:35;24.08;;;8.88;;
40621;SDS011;26324;52.040;11.528;2023-04-10T06:51:02;17.85;;;7.93;;
40621;SDS011;26324;52.040;11.528;2023-04-10T06:53:30;20.23;;;8.15;;
40621;SDS011;26324;52.040;11.528;2023-04-10T06:55:57;18.83;;;8.23;;
40621;SDS011;26324;52.040;11.528;2023-04-10T06:58:28;21.55;;;8.25;;
40621;SDS011;26324;52.040;11.528;2023-04-10T07:01:00;20.45;;;9.35;;
40621;SDS011;26324;52.040;11.528;2023-04-10T07:03:30;19.48;;;8.82;;
40621;SDS011;26324;52.040;11.528;2023-04-10T07:05:58;21.63;;;9.40;;
40621;SDS011;26324;52.040;11.528;2023-04-10T07:10:54;23.48;;;10.95;;
40621;SDS011;26324;52.040;11.528;2023-04-10T07:13:24;28.42;;;10.32;;
40621;SDS011;26324;52.040;11.528;2023-04-10T07:15:52;24.02;;;10.32;;
40621;SDS011;26324;52.040;11.528;2023-04-10T07:18:19;26.30;;;10.65;;
40621;SDS011;26324;52.040;11.528;2023-04-10T07:20:46;26.33;;;10.10;;
40621;SDS011;26324;52.040;11.528;2023-04-10T07:23:15;24.48;;;10.73;;
40621;SDS011;26324;52.040;11.528;2023-04-10T07:25:43;23.52;;;11.32;;
40621;SDS011;26324;52.040;11.528;2023-04-10T07:28:15;23.23;;;10.30;;
40621;SDS011;26324;52.040;11.528;2023-04-10T07:30:42;19.77;;;10.52;;
40621;SDS011;26324;52.040;11.528;2023-04-10T07:33:09;19.67;;;8.43;;
40621;SDS011;26324;52.040;11.528;2023-04-10T07:35:37;20.55;;;9.50;;
40621;SDS011;26324;52.040;11.528;2023-04-10T07:38:05;21.90;;;9.88;;
40621;SDS011;26324;52.040;11.528;2023-04-10T07:40:32;19.25;;;9.18;;
40621;SDS011;26324;52.040;11.528;2023-04-10T07:42:59;15.75;;;7.93;;
40621;SDS011;26324;52.040;11.528;2023-04-10T07:45:27;19.10;;;8.52;;
40621;SDS011;26324;52.040;11.528;2023-04-10T07:47:54;17.52;;;8.07;;
40621;SDS011;26324;52.040;11.528;2023-04-10T07:50:22;21.02;;;10.40;;
40621;SDS011;26324;52.040;11.528;2023-04-10T07:52:49;20.05;;;8.40;;
40621;SDS011;26324;52.040;11.528;2023-04-10T07:55:16;17.52;;;8.98;;
40621;SDS011;26324;52.040;11.528;2023-04-10T07:57:44;23.38;;;9.18;;
40621;SDS011;26324;52.040;11.528;2023-04-10T08:00:12;20.92;;;9.20;;
40621;SDS011;26324;52.040;11.528;2023-04-10T08:02:40;21.98;;;9.35;;
40621;SDS011;26324;52.040;11.528;2023-04-10T08:05:08;20.58;;;9.02;;
40621;SDS011;26324;52.040;11.528;2023-04-10T08:07:35;18.80;;;9.52;;
40621;SDS011;26324;52.040;11.528;2023-04-10T08:10:04;22.40;;;10.45;;
40621;SDS011;26324;52.040;11.528;2023-04-10T08:12:34;20.63;;;9.35;;
40621;SDS011;26324;52.040;11.528;2023-04-10T08:15:04;18.63;;;8.50;;
40621;SDS011;26324;52.040;11.528;2023-04-10T08:17:33;22.98;;;9.77;;
40621;SDS011;26324;52.040;11.528;2023-04-10T08:20:00;21.02;;;8.02;;
40621;SDS011;26324;52.040;11.528;2023-04-10T08:22:27;19.48;;;9.30;;
40621;SDS011;26324;52.040;11.528;2023-04-10T08:24:54;15.80;;;9.15;;
40621;SDS011;26324;52.040;11.528;2023-04-10T08:27:22;16.00;;;8.32;;
40621;SDS011;26324;52.040;11.528;2023-04-10T08:29:49;17.15;;;8.38;;
40621;SDS011;26324;52.040;11.528;2023-04-10T08:32:17;15.30;;;8.25;;
40621;SDS011;26324;52.040;11.528;2023-04-10T08:34:44;18.30;;;7.68;;
40621;SDS011;26324;52.040;11.528;2023-04-10T08:37:11;17.85;;;9.35;;
40621;SDS011;26324;52.040;11.528;2023-04-10T08:39:41;15.38;;;7.68;;
40621;SDS011;26324;52.040;11.528;2023-04-10T08:42:08;18.05;;;9.30;;
40621;SDS011;26324;52.040;11.528;2023-04-10T08:44:35;17.33;;;8.88;;
40621;SDS011;26324;52.040;11.528;2023-04-10T08:47:03;15.43;;;8.07;;
40621;SDS011;26324;52.040;11.528;2023-04-10T08:49:36;16.95;;;8.23;;
40621;SDS011;26324;52.040;11.528;2023-04-10T08:52:13;16.80;;;8.02;;
40621;SDS011;26324;52.040;11.528;2023-04-10T08:54:46;15.15;;;8.10;;
40621;SDS011;26324;52.040;11.528;2023-04-10T08:57:16;16.08;;;8.65;;
40621;SDS011;26324;52.040;11.528;2023-04-10T08:59:46;17.73;;;9.55;;
40621;SDS011;26324;52.040;11.528;2023-04-10T09:02:14;17.85;;;8.40;;
40621;SDS011;26324;52.040;11.528;2023-04-10T09:04:43;16.67;;;8.82;;
40621;SDS011;26324;52.040;11.528;2023-04-10T09:07:17;18.13;;;8.18;;
40621;SDS011;26324;52.040;11.528;2023-04-10T09:09:44;18.23;;;8.88;;
40621;SDS011;26324;52.040;11.528;2023-04-10T09:12:12;15.88;;;7.72;;
40621;SDS011;26324;52.040;11.528;2023-04-10T09:17:10;17.40;;;8.52;;
40621;SDS011;26324;52.040;11.528;2023-04-10T09:19:43;17.67;;;8.50;;
40621;SDS011;26324;52.040;11.528;2023-04-10T09:22:12;17.60;;;8.98;;
40621;SDS011;26324;52.040;11.528;2023-04-10T09:24:41;17.60;;;8.65;;
40621;SDS011;26324;52.040;11.528;2023-04-10T09:27:09;17.35;;;8.68;;
40621;SDS011;26324;52.040;11.528;2023-04-10T09:29:40;15.30;;;8.32;;
40621;SDS011;26324;52.040;11.528;2023-04-10T09:35:05;16.33;;;8.00;;
40621;SDS011;26324;52.040;11.528;2023-04-10T09:37:34;13.43;;;7.15;;
40621;SDS011;26324;52.040;11.528;2023-04-10T09:40:02;13.02;;;6.90;;
40621;SDS011;26324;52.040;11.528;2023-04-10T09:42:34;15.57;;;8.25;;
40621;SDS011;26324;52.040;11.528;2023-04-10T09:45:03;13.18;;;7.28;;
40621;SDS011;26324;52.040;11.528;2023-04-10T09:47:31;16.42;;;7.38;;
40621;SDS011;26324;52.040;11.528;2023-04-10T09:49:59;13.63;;;7.10;;
40621;SDS011;26324;52.040;11.528;2023-04-10T09:55:01;14.35;;;7.13;;
40621;SDS011;26324;52.040;11.528;2023-04-10T09:57:35;15.25;;;8.43;;
40621;SDS011;26324;52.040;11.528;2023-04-10T10:00:03;14.45;;;6.90;;
40621;SDS011;26324;52.040;11.528;2023-04-10T10:02:34;12.48;;;6.15;;
40621;SDS011;26324;52.040;11.528;2023-04-10T10:05:05;11.60;;;5.60;;
40621;SDS011;26324;52.040;11.528;2023-04-10T10:07:33;11.50;;;6.07;;
40621;SDS011;26324;52.040;11.528;2023-04-10T10:10:00;11.35;;;6.25;;
40621;SDS011;26324;52.040;11.528;2023-04-10T10:12:34;13.73;;;6.45;;
40621;SDS011;26324;52.040;11.528;2023-04-10T10:18:12;14.40;;;6.85;;
40621;SDS011;26324;52.040;11.528;2023-04-10T10:20:43;13.48;;;6.78;;
40621;SDS011;26324;52.040;11.528;2023-04-10T10:23:11;11.20;;;6.32;;
40621;SDS011;26324;52.040;11.528;2023-04-10T10:25:41;12.30;;;7.22;;
40621;SDS011;26324;52.040;11.528;2023-04-10T10:28:11;11.45;;;5.90;;
40621;SDS011;26324;52.040;11.528;2023-04-10T10:30:39;11.07;;;5.30;;
40621;SDS011;26324;52.040;11.528;2023-04-10T10:33:07;13.10;;;7.22;;
40621;SDS011;26324;52.040;11.528;2023-04-10T10:35:36;11.10;;;5.82;;
40621;SDS011;26324;52.040;11.528;2023-04-10T10:38:03;15.68;;;7.05;;
40621;SDS011;26324;52.040;11.528;2023-04-10T10:40:32;14.55;;;7.10;;
40621;SDS011;26324;52.040;11.528;2023-04-10T10:43:24;14.90;;;6.43;;
40621;SDS011;26324;52.040;11.528;2023-04-10T10:47:03;13.73;;;7.22;;
40621;SDS011;26324;52.040;11.528;2023-04-10T10:49:03;13.60;;;6.90;;
40621;SDS011;26324;52.040;11.528;2023-04-10T10:54:27;11.05;;;6.25;;
40621;SDS011;26324;52.040;11.528;2023-04-10T10:56:59;11.95;;;6.38;;
40621;SDS011;26324;52.040;11.528;2023-04-10T11:02:13;14.02;;;7.40;;
40621;SDS011;26324;52.040;11.528;2023-04-10T11:04:44;16.27;;;6.95;;
40621;SDS011;26324;52.040;11.528;2023-04-10T11:07:12;12.77;;;7.50;;
40621;SDS011;26324;52.040;11.528;2023-04-10T11:12:13;13.73;;;7.18;;
40621;SDS011;26324;52.040;11.528;2023-04-10T11:14:41;11.48;;;6.65;;
40621;SDS011;26324;52.040;11.528;2023-04-10T11:17:11;12.43;;;6.68;;
40621;SDS011;26324;52.040;11.528;2023-04-10T11:22:28;13.18;;;7.05;;
40621;SDS011;26324;52.040;11.528;2023-04-10T11:24:59;12.38;;;7.03;;
40621;SDS011;26324;52.040;11.528;2023-04-10T11:32:55;11.05;;;6.15;;
40621;SDS011;26324;52.040;11.528;2023-04-10T11:35:24;11.95;;;6.50;;
40621;SDS011;26324;52.040;11.528;2023-04-10T11:38:08;11.80;;;5.88;;
40621;SDS011;26324;52.040;11.528;2023-04-10T11:40:51;10.32;;;5.88;;
40621;SDS011;26324;52.040;11.528;2023-04-10T11:43:20;10.50;;;6.18;;
40621;SDS011;26324;52.040;11.528;2023-04-10T11:45:47;11.68;;;6.10;;
40621;SDS011;26324;52.040;11.528;2023-04-10T11:48:15;8.88;;;5.82;;
40621;SDS011;26324;52.040;11.528;2023-04-10T11:50:43;12.57;;;5.97;;
40621;SDS011;26324;52.040;11.528;2023-04-10T11:53:17;10.18;;;5.57;;
40621;SDS011;26324;52.040;11.528;2023-04-10T11:55:45;10.80;;;5.05;;
40621;SDS011;26324;52.040;11.528;2023-04-10T11:58:23;9.82;;;5.05;;
40621;SDS011;26324;52.040;11.528;2023-04-10T12:01:00;12.40;;;5.10;;
40621;SDS011;26324;52.040;11.528;2023-04-10T12:03:36;10.20;;;5.43;;
40621;SDS011;26324;52.040;11.528;2023-04-10T12:06:05;7.60;;;4.43;;
40621;SDS011;26324;52.040;11.528;2023-04-10T12:08:42;8.80;;;3.70;;
40621;SDS011;26324;52.040;11.528;2023-04-10T12:11:24;6.68;;;3.92;;
40621;SDS011;26324;52.040;11.528;2023-04-10T12:13:55;5.90;;;3.05;;
40621;SDS011;26324;52.040;11.528;2023-04-10T12:16:23;6.05;;;3.45;;
40621;SDS011;26324;52.040;11.528;2023-04-10T12:18:53;5.80;;;3.25;;
40621;SDS011;26324;52.040;11.528;2023-04-10T12:21:21;8.68;;;4.03;;
40621;SDS011;26324;52.040;11.528;2023-04-10T12:23:48;7.95;;;3.90;;
40621;SDS011;26324;52.040;11.528;2023-04-10T12:26:16;8.52;;;4.38;;
40621;SDS011;26324;52.040;11.528;2023-04-10T12:28:54;6.55;;;3.47;;
40621;SDS011;26324;52.040;11.528;2023-04-10T12:31:30;7.75;;;3.80;;
40621;SDS011;26324;52.040;11.528;2023-04-10T12:34:02;7.93;;;4.13;;
40621;SDS011;26324;52.040;11.528;2023-04-10T12:36:31;6.80;;;3.60;;
40621;SDS011;26324;52.040;11.528;2023-04-10T12:39:01;7.47;;;4.22;;
40621;SDS011;26324;52.040;11.528;2023-04-10T12:41:31;7.72;;;4.75;;
40621;SDS011;26324;52.040;11.528;2023-04-10T12:44:10;7.88;;;4.10;;
40621;SDS011;26324;52.040;11.528;2023-04-10T12:46:39;9.48;;;4.93;;
40621;SDS011;26324;52.040;11.528;2023-04-10T12:49:08;11.48;;;5.43;;
40621;SDS011;26324;52.040;11.528;2023-04-10T12:51:41;10.52;;;5.63;;
40621;SDS011;26324;52.040;11.528;2023-04-10T12:56:52;8.93;;;5.20;;
40621;SDS011;26324;52.040;11.528;2023-04-10T12:59:20;11.55;;;5.88;;
40621;SDS011;26324;52.040;11.528;2023-04-10T13:01:49;11.82;;;5.50;;
40621;SDS011;26324;52.040;11.528;2023-04-10T13:04:16;8.43;;;4.65;;
40621;SDS011;26324;52.040;11.528;2023-04-10T13:06:45;9.85;;;4.72;;
40621;SDS011;26324;52.040;11.528;2023-04-10T13:09:15;11.20;;;5.55;;
40621;SDS011;26324;52.040;11.528;2023-04-10T13:11:43;8.63;;;4.95;;
40621;SDS011;26324;52.040;11.528;2023-04-10T13:14:12;7.25;;;4.28;;
40621;SDS011;26324;52.040;11.528;2023-04-10T13:16:40;7.78;;;3.22;;
40621;SDS011;26324;52.040;11.528;2023-04-10T13:19:07;5.45;;;3.45;;
40621;SDS011;26324;52.040;11.528;2023-04-10T13:21:34;5.93;;;3.95;;
40621;SDS011;26324;52.040;11.528;2023-04-10T13:24:01;9.52;;;3.88;;
40621;SDS011;26324;52.040;11.528;2023-04-10T13:26:29;6.53;;;3.35;;
40621;SDS011;26324;52.040;11.528;2023-04-10T13:28:56;5.82;;;3.15;;
40621;SDS011;26324;52.040;11.528;2023-04-10T13:31:23;8.90;;;3.67;;
40621;SDS011;26324;52.040;11.528;2023-04-10T13:33:50;10.35;;;3.80;;
40621;SDS011;26324;52.040;11.528;2023-04-10T13:36:18;7.90;;;4.18;;
40621;SDS011;26324;52.040;11.528;2023-04-10T13:38:45;6.05;;;3.25;;
40621;SDS011;26324;52.040;11.528;2023-04-10T13:41:12;6.97;;;4.05;;
40621;SDS011;26324;52.040;11.528;2023-04-10T13:43:39;9.32;;;4.25;;
40621;SDS011;26324;52.040;11.528;2023-04-10T13:46:08;5.93;;;4.05;;
40621;SDS011;26324;52.040;11.528;2023-04-10T13:48:35;7.88;;;3.95;;
40621;SDS011;26324;52.040;11.528;2023-04-10T13:51:07;5.93;;;3.55;;
40621;SDS011;26324;52.040;11.528;2023-04-10T13:53:34;6.35;;;3.97;;
40621;SDS011;26324;52.040;11.528;2023-04-10T13:56:01;7.57;;;3.35;;
40621;SDS011;26324;52.040;11.528;2023-04-10T13:58:29;7.70;;;3.53;;
40621;SDS011;26324;52.040;11.528;2023-04-10T14:00:58;7.05;;;4.25;;
40621;SDS011;26324;52.040;11.528;2023-04-10T14:03:26;10.70;;;4.13;;
40621;SDS011;26324;52.040;11.528;2023-04-10T14:05:53;7.25;;;4.28;;
40621;SDS011;26324;52.040;11.528;2023-04-10T14:08:20;6.78;;;3.63;;
40621;SDS011;26324;52.040;11.528;2023-04-10T14:10:48;7.20;;;3.92;;
40621;SDS011;26324;52.040;11.528;2023-04-10T14:13:17;6.05;;;3.70;;
40621;SDS011;26324;52.040;11.528;2023-04-10T14:15:45;6.38;;;3.35;;
40621;SDS011;26324;52.040;11.528;2023-04-10T14:18:12;5.95;;;4.15;;
40621;SDS011;26324;52.040;11.528;2023-04-10T14:20:43;6.80;;;4.10;;
40621;SDS011;26324;52.040;11.528;2023-04-10T14:23:10;5.13;;;3.22;;
40621;SDS011;26324;52.040;11.528;2023-04-10T14:25:44;5.43;;;2.92;;
40621;SDS011;26324;52.040;11.528;2023-04-10T14:28:11;5.72;;;3.20;;
40621;SDS011;26324;52.040;11.528;2023-04-10T14:30:45;5.40;;;3.30;;
40621;SDS011;26324;52.040;11.528;2023-04-10T14:33:15;5.57;;;3.95;;
40621;SDS011;26324;52.040;11.528;2023-04-10T14:35:45;7.80;;;4.03;;
40621;SDS011;26324;52.040;11.528;2023-04-10T14:38:12;6.47;;;3.80;;
40621;SDS011;26324;52.040;11.528;2023-04-10T14:40:42;7.05;;;3.72;;
40621;SDS011;26324;52.040;11.528;2023-04-10T14:43:11;6.75;;;3.50;;
40621;SDS011;26324;52.040;11.528;2023-04-10T14:45:38;6.55;;;3.92;;
40621;SDS011;26324;52.040;11.528;2023-04-10T14:48:06;7.50;;;4.30;;
40621;SDS011;26324;52.040;11.528;2023-04-10T14:50:33;6.88;;;3.80;;
40621;SDS011;26324;52.040;11.528;2023-04-10T14:53:00;6.22;;;3.70;;
40621;SDS011;26324;52.040;11.528;2023-04-10T14:55:28;5.78;;;3.88;;
40621;SDS011;26324;52.040;11.528;2023-04-10T14:57:56;5.97;;;3.90;;
40621;SDS011;26324;52.040;11.528;2023-04-10T15:00:24;6.68;;;3.60;;
40621;SDS011;26324;52.040;11.528;2023-04-10T15:02:52;7.63;;;4.03;;
40621;SDS011;26324;52.040;11.528;2023-04-10T15:05:21;8.30;;;4.38;;
40621;SDS011;26324;52.040;11.528;2023-04-10T15:07:48;6.30;;;4.07;;
40621;SDS011;26324;52.040;11.528;2023-04-10T15:10:16;8.55;;;4.53;;
40621;SDS011;26324;52.040;11.528;2023-04-10T15:12:43;6.32;;;4.00;;
40621;SDS011;26324;52.040;11.528;2023-04-10T15:15:10;7.38;;;4.50;;
40621;SDS011;26324;52.040;11.528;2023-04-10T15:17:42;6.93;;;4.10;;
40621;SDS011;26324;52.040;11.528;2023-04-10T15:20:10;9.32;;;4.22;;
40621;SDS011;26324;52.040;11.528;2023-04-10T15:22:38;9.48;;;4.47;;
40621;SDS011;26324;52.040;11.528;2023-04-10T15:25:08;8.98;;;4.32;;
40621;SDS011;26324;52.040;11.528;2023-04-10T15:27:37;7.82;;;4.05;;
40621;SDS011;26324;52.040;11.528;2023-04-10T15:30:05;8.40;;;4.50;;
40621;SDS011;26324;52.040;11.528;2023-04-10T15:32:33;7.43;;;4.20;;
40621;SDS011;26324;52.040;11.528;2023-04-10T15:35:03;7.25;;;4.50;;
40621;SDS011;26324;52.040;11.528;2023-04-10T15:37:33;6.38;;;3.83;;
40621;SDS011;26324;52.040;11.528;2023-04-10T15:40:01;7.05;;;4.22;;
40621;SDS011;26324;52.040;11.528;2023-04-10T15:42:30;7.75;;;4.50;;